Time;durP1;ratioP1;P1;durP2;ratioP2;P2;SDS_P1;SDS_P2;PMS_P1;PMS_P2;Temp;Humidity;BMP_temperature;BMP_pressure;BME280_temperature;BME280_humidity;BME280_pressure;Samples;Min_cycle;Max_cycle;Signal;HPM_P1;HPM_P2
2024/04/06 00:00:09;;;;;;;3.87;2.40;;;15.10;99.90;;;;;;5036752;28;20218;-62
2024/04/06 00:02:36;;;;;;;3.67;2.57;;;15.00;99.90;;;;;;5024140;28;20209;-61
2024/04/06 00:05:03;;;;;;;2.90;2.37;;;14.90;99.90;;;;;;5021476;28;20781;-62
2024/04/06 00:07:30;;;;;;;2.77;2.07;;;14.90;99.90;;;;;;5022650;28;20210;-62
2024/04/06 00:09:58;;;;;;;2.47;2.27;;;14.80;99.90;;;;;;5024261;28;20223;-62
2024/04/06 00:12:25;;;;;;;5.70;2.30;;;14.90;99.90;;;;;;5024754;28;20225;-62
2024/04/06 00:14:54;;;;;;;5.80;2.20;;;14.90;99.90;;;;;;5021232;28;20202;-62
2024/04/06 00:17:21;;;;;;;2.27;2.00;;;14.90;99.90;;;;;;5023447;28;20280;-62
2024/04/06 00:19:49;;;;;;;3.73;2.40;;;14.90;99.90;;;;;;5022658;28;20225;-62
2024/04/06 00:22:16;;;;;;;3.27;2.23;;;14.90;99.90;;;;;;5025054;28;20623;-62
2024/04/06 00:24:43;;;;;;;2.77;2.17;;;14.80;99.90;;;;;;5026022;28;20431;-62
2024/04/06 00:27:09;;;;;;;2.53;2.07;;;14.80;99.90;;;;;;5027047;28;20218;-63
2024/04/06 00:29:37;;;;;;;4.50;2.40;;;14.80;99.90;;;;;;5023884;28;20279;-60
2024/04/06 00:32:06;;;;;;;2.80;2.20;;;14.70;99.90;;;;;;5023863;28;20220;-62
2024/04/06 00:34:33;;;;;;;2.40;2.20;;;14.70;99.90;;;;;;5021010;28;20213;-62
2024/04/06 00:37:01;;;;;;;4.90;2.50;;;14.60;99.90;;;;;;5033207;28;20239;-62
2024/04/06 00:39:29;;;;;;;2.40;2.10;;;14.50;99.90;;;;;;5036116;28;20225;-63
2024/04/06 00:41:55;;;;;;;2.73;2.13;;;14.40;99.90;;;;;;5023126;28;20231;-62
2024/04/06 00:44:24;;;;;;;3.17;2.40;;;14.30;99.90;;;;;;5022119;28;20222;-62
2024/04/06 00:46:55;;;;;;;3.00;2.57;;;14.20;99.90;;;;;;5023284;28;20247;-62
2024/04/06 00:49:24;;;;;;;5.50;2.90;;;14.10;99.90;;;;;;5023252;28;20211;-62
2024/04/06 00:51:50;;;;;;;4.70;2.50;;;14.10;99.90;;;;;;5035438;28;20258;-62
2024/04/06 00:54:18;;;;;;;4.83;2.70;;;14.10;99.90;;;;;;5037239;28;20693;-62
2024/04/06 00:56:45;;;;;;;3.43;2.67;;;14.00;99.90;;;;;;5023912;28;20587;-62
2024/04/06 00:59:12;;;;;;;4.90;3.03;;;14.00;99.90;;;;;;5024931;28;20209;-63
2024/04/06 01:01:38;;;;;;;4.67;2.77;;;14.00;99.90;;;;;;5024032;28;20221;-62
2024/04/06 01:04:06;;;;;;;10.03;3.30;;;14.00;99.90;;;;;;5021281;28;20232;-62
2024/04/06 01:06:33;;;;;;;4.73;2.50;;;14.10;99.90;;;;;;5023287;28;20296;-63
2024/04/06 01:09:01;;;;;;;6.43;3.23;;;14.10;99.90;;;;;;5023162;28;20308;-62
2024/04/06 01:11:27;;;;;;;3.43;2.60;;;14.10;99.90;;;;;;5023560;28;20221;-61
2024/04/06 01:13:55;;;;;;;5.40;2.67;;;14.20;99.90;;;;;;5045004;28;20217;-62
2024/04/06 01:16:21;;;;;;;2.93;2.40;;;14.20;99.90;;;;;;5028699;28;20217;-62
2024/04/06 01:18:49;;;;;;;2.43;2.30;;;14.20;99.90;;;;;;5023840;28;20271;-62
2024/04/06 01:21:15;;;;;;;4.77;2.40;;;14.30;99.90;;;;;;5031153;28;20220;-62
2024/04/06 01:23:45;;;;;;;10.00;3.23;;;14.30;99.90;;;;;;5043234;28;20248;-62
2024/04/06 01:26:13;;;;;;;2.90;2.30;;;14.30;99.90;;;;;;5024281;28;20284;-62
2024/04/06 01:28:42;;;;;;;4.20;2.70;;;14.30;99.90;;;;;;5026578;28;20730;-63
2024/04/06 01:31:09;;;;;;;4.23;2.53;;;14.30;99.90;;;;;;5020421;28;20262;-62
2024/04/06 01:33:37;;;;;;;2.93;2.67;;;14.30;99.90;;;;;;5026298;28;20217;-62
2024/04/06 01:36:03;;;;;;;4.20;2.57;;;14.40;99.90;;;;;;5010112;28;20748;-63
2024/04/06 01:38:32;;;;;;;3.00;2.67;;;14.40;99.90;;;;;;5028100;28;20703;-63
2024/04/06 01:40:59;;;;;;;6.93;2.40;;;14.40;99.90;;;;;;5029887;28;20587;-62
2024/04/06 01:43:27;;;;;;;2.50;2.40;;;14.40;99.90;;;;;;5027880;28;20703;-62
2024/04/06 01:45:54;;;;;;;6.23;2.90;;;14.40;99.90;;;;;;5028182;28;20232;-62
2024/04/06 01:48:21;;;;;;;4.70;2.67;;;14.40;99.90;;;;;;5028405;28;20226;-62
2024/04/06 01:50:48;;;;;;;6.17;2.97;;;14.40;99.90;;;;;;5023937;28;20576;-62
2024/04/06 01:53:15;;;;;;;4.70;2.60;;;14.40;99.90;;;;;;5029121;28;20195;-63
2024/04/06 01:55:42;;;;;;;3.67;2.60;;;14.40;99.90;;;;;;5026645;28;20226;-62
2024/04/06 01:58:09;;;;;;;6.67;2.70;;;14.40;99.90;;;;;;5027428;28;20222;-62
2024/04/06 02:00:37;;;;;;;4.27;2.77;;;14.30;99.90;;;;;;5041383;28;20248;-63
2024/04/06 02:03:05;;;;;;;3.20;2.70;;;14.40;99.90;;;;;;5030359;28;20221;-61
2024/04/06 02:05:31;;;;;;;5.63;2.73;;;14.40;99.90;;;;;;5025404;28;20296;-62
2024/04/06 02:07:59;;;;;;;3.67;2.77;;;14.40;99.90;;;;;;5026516;28;20217;-63
2024/04/06 02:10:26;;;;;;;3.67;2.50;;;14.40;99.90;;;;;;5024903;28;20286;-62
2024/04/06 02:12:54;;;;;;;2.90;2.70;;;14.30;99.90;;;;;;5027486;28;20313;-62
2024/04/06 02:15:21;;;;;;;2.47;2.30;;;14.30;99.90;;;;;;5004205;28;20212;-62
2024/04/06 02:17:50;;;;;;;3.57;2.70;;;14.30;99.90;;;;;;5022892;28;20282;-62
2024/04/06 02:20:16;;;;;;;4.10;3.10;;;14.30;99.90;;;;;;5025758;28;20236;-62
2024/04/06 02:22:44;;;;;;;5.23;2.53;;;14.30;99.90;;;;;;5044426;28;20702;-62
2024/04/06 02:25:10;;;;;;;5.63;2.57;;;14.30;99.90;;;;;;5029345;28;20709;-63
2024/04/06 02:27:37;;;;;;;3.47;2.70;;;14.20;99.90;;;;;;5025985;28;20724;-63
2024/04/06 02:30:06;;;;;;;2.60;2.40;;;14.20;99.90;;;;;;5027821;28;20225;-63
2024/04/06 02:32:34;;;;;;;6.37;2.87;;;14.20;99.90;;;;;;5024729;28;20193;-62
2024/04/06 02:35:04;;;;;;;3.07;2.67;;;14.20;99.90;;;;;;5046369;28;20308;-63
2024/04/06 02:37:32;;;;;;;4.63;2.80;;;14.20;99.90;;;;;;5031761;28;20251;-63
2024/04/06 02:39:58;;;;;;;3.13;2.60;;;14.30;99.90;;;;;;5027119;28;20773;-63
2024/04/06 02:42:25;;;;;;;3.40;2.77;;;14.30;99.90;;;;;;5028414;28;20275;-63
2024/04/06 02:44:52;;;;;;;3.40;2.70;;;14.20;99.90;;;;;;5029825;28;20204;-63
2024/04/06 02:47:20;;;;;;;3.37;2.30;;;14.20;99.90;;;;;;5027480;28;20209;-62
2024/04/06 02:49:47;;;;;;;3.03;2.30;;;14.20;99.90;;;;;;5025564;28;20232;-63
2024/04/06 02:52:16;;;;;;;4.57;2.93;;;14.20;99.90;;;;;;5039809;28;20262;-63
2024/04/06 02:54:42;;;;;;;5.10;2.63;;;14.20;99.90;;;;;;5037405;28;20217;-62
2024/04/06 02:57:10;;;;;;;2.63;2.43;;;14.10;99.90;;;;;;5026835;28;20301;-63
2024/04/06 02:59:36;;;;;;;2.50;2.40;;;14.10;99.90;;;;;;5026101;28;20279;-63
2024/04/06 03:02:04;;;;;;;2.67;2.47;;;14.10;99.90;;;;;;5027473;28;20704;-63
2024/04/06 03:04:30;;;;;;;3.20;2.33;;;14.10;99.90;;;;;;5025537;28;20240;-62
2024/04/06 03:06:58;;;;;;;5.03;2.77;;;14.10;99.90;;;;;;5027904;28;20287;-63
2024/04/06 03:09:26;;;;;;;4.73;2.50;;;14.00;99.90;;;;;;5027082;28;20231;-63
2024/04/06 03:11:53;;;;;;;4.93;2.77;;;14.00;99.90;;;;;;5009067;28;20240;-62
2024/04/06 03:14:19;;;;;;;4.53;2.67;;;14.00;99.90;;;;;;5027147;28;20232;-62
2024/04/06 03:16:47;;;;;;;2.43;2.30;;;14.00;99.90;;;;;;5027452;28;20686;-63
2024/04/06 03:19:13;;;;;;;2.80;2.60;;;14.00;99.90;;;;;;5027997;28;20708;-63
2024/04/06 03:21:41;;;;;;;3.83;2.70;;;14.10;99.90;;;;;;5025801;28;20220;-63
2024/04/06 03:24:07;;;;;;;2.33;2.23;;;14.10;99.90;;;;;;5027003;28;20225;-62
2024/04/06 03:26:37;;;;;;;6.50;2.57;;;14.10;99.90;;;;;;5028862;28;20252;-63
2024/04/06 03:29:04;;;;;;;3.00;2.07;;;14.10;99.90;;;;;;5009563;28;20567;-62
2024/04/06 03:31:31;;;;;;;4.00;2.87;;;14.20;99.90;;;;;;5026761;28;20225;-63
2024/04/06 03:33:57;;;;;;;2.60;2.40;;;14.20;99.90;;;;;;5029443;28;20300;-63
2024/04/06 03:36:25;;;;;;;7.17;2.50;;;14.20;99.90;;;;;;5024196;28;20221;-62
2024/04/06 03:38:52;;;;;;;2.70;2.50;;;14.30;99.90;;;;;;5023006;28;20211;-62
2024/04/06 03:41:19;;;;;;;4.20;2.20;;;14.20;99.90;;;;;;5025687;28;20669;-63
2024/04/06 03:43:48;;;;;;;4.77;2.43;;;14.20;99.90;;;;;;5029334;28;20225;-63
2024/04/06 03:46:15;;;;;;;2.53;2.30;;;14.20;99.90;;;;;;5029775;28;20619;-63
2024/04/06 03:48:42;;;;;;;9.23;2.70;;;14.10;99.90;;;;;;5024168;28;20317;-62
2024/04/06 03:51:09;;;;;;;2.60;2.40;;;14.10;99.90;;;;;;5027671;28;20274;-63
2024/04/06 03:53:40;;;;;;;4.13;2.63;;;14.10;99.90;;;;;;5023413;28;20191;-62
2024/04/06 03:56:06;;;;;;;3.07;2.30;;;14.10;99.90;;;;;;5043629;28;20208;-63
2024/04/06 03:58:34;;;;;;;2.60;2.10;;;14.10;99.90;;;;;;5030634;28;20227;-63
2024/04/06 04:01:02;;;;;;;3.37;2.30;;;14.10;99.90;;;;;;5026947;28;20220;-62
2024/04/06 04:03:29;;;;;;;4.07;2.50;;;14.10;99.90;;;;;;5025966;28;20356;-62
2024/04/06 04:05:56;;;;;;;2.93;2.50;;;14.00;99.90;;;;;;5024446;28;20235;-63
2024/04/06 04:08:23;;;;;;;3.20;2.47;;;14.00;99.90;;;;;;5021986;28;20203;-63
2024/04/06 04:10:50;;;;;;;3.13;2.10;;;14.00;99.90;;;;;;5040462;28;20224;-63
2024/04/06 04:13:19;;;;;;;3.00;2.50;;;14.00;99.90;;;;;;5034451;28;20763;-63
2024/04/06 04:15:46;;;;;;;4.80;2.40;;;14.00;99.90;;;;;;5023677;28;20242;-63
2024/04/06 04:18:15;;;;;;;4.87;2.47;;;14.00;99.90;;;;;;5020200;28;20784;-64
2024/04/06 04:20:43;;;;;;;3.97;2.30;;;14.00;99.90;;;;;;5021561;28;20294;-62
2024/04/06 04:23:11;;;;;;;4.10;2.43;;;13.90;99.90;;;;;;5024736;28;20198;-63
2024/04/06 04:25:38;;;;;;;2.30;2.20;;;13.90;99.90;;;;;;5025910;28;20655;-63
2024/04/06 04:28:06;;;;;;;4.53;2.27;;;13.90;99.90;;;;;;5022324;28;20226;-63
2024/04/06 04:30:32;;;;;;;3.00;2.17;;;13.90;99.90;;;;;;5023214;28;20244;-63
2024/04/06 04:33:00;;;;;;;3.37;2.57;;;13.90;99.90;;;;;;5028220;28;20221;-63
2024/04/06 04:35:28;;;;;;;2.67;2.43;;;13.80;99.90;;;;;;5025050;28;20198;-63
2024/04/06 04:37:55;;;;;;;2.60;2.40;;;13.80;99.90;;;;;;5025770;28;20739;-63
2024/04/06 04:40:22;;;;;;;5.53;2.50;;;13.80;99.90;;;;;;5026278;28;20217;-63
2024/04/06 04:42:50;;;;;;;4.23;2.37;;;13.70;99.90;;;;;;5024339;28;20238;-63
2024/04/06 04:45:16;;;;;;;3.40;2.33;;;13.70;99.90;;;;;;5027110;28;20308;-63
2024/04/06 04:47:45;;;;;;;5.50;2.40;;;13.70;99.90;;;;;;5044120;28;20185;-62
2024/04/06 04:50:11;;;;;;;2.47;2.10;;;13.60;99.90;;;;;;5029604;28;20225;-63
2024/04/06 04:52:40;;;;;;;2.57;2.37;;;13.60;99.90;;;;;;5026031;28;20217;-63
2024/04/06 04:55:07;;;;;;;2.57;2.37;;;13.60;99.90;;;;;;5023941;28;20234;-64
2024/04/06 04:57:34;;;;;;;3.53;2.40;;;13.60;99.90;;;;;;5028207;28;20244;-63
2024/04/06 05:00:00;;;;;;;4.37;2.50;;;13.60;99.90;;;;;;5027232;28;20257;-63
2024/04/06 05:02:29;;;;;;;3.73;2.30;;;13.60;99.90;;;;;;5023223;28;20186;-64
2024/04/06 05:04:56;;;;;;;2.33;2.23;;;13.60;99.90;;;;;;5027782;28;20271;-63
2024/04/06 05:07:23;;;;;;;2.83;2.60;;;13.70;99.90;;;;;;5028164;28;20221;-64
2024/04/06 05:09:53;;;;;;;2.93;2.40;;;13.70;99.90;;;;;;5026654;28;20449;-63
2024/04/06 05:12:22;;;;;;;4.50;2.40;;;13.70;99.90;;;;;;5034581;28;20222;-63
2024/04/06 05:14:49;;;;;;;2.53;2.33;;;13.70;99.90;;;;;;5033239;28;20193;-63
2024/04/06 05:17:16;;;;;;;3.60;2.40;;;13.80;99.90;;;;;;5031149;28;20193;-63
2024/04/06 05:19:43;;;;;;;6.73;2.50;;;13.80;99.90;;;;;;5030291;28;20299;-63
2024/04/06 05:22:10;;;;;;;2.50;2.40;;;13.80;99.90;;;;;;5028112;28;20225;-63
2024/04/06 05:24:36;;;;;;;2.43;2.27;;;13.90;99.90;;;;;;5029243;28;20217;-63
2024/04/06 05:27:05;;;;;;;2.50;2.30;;;14.00;99.90;;;;;;5030971;28;20253;-63
2024/04/06 05:29:32;;;;;;;5.67;2.37;;;14.00;99.90;;;;;;5026424;28;20292;-63
2024/04/06 05:31:59;;;;;;;4.50;2.30;;;14.10;99.90;;;;;;5022996;28;20247;-63
2024/04/06 05:34:25;;;;;;;7.20;2.70;;;14.20;99.90;;;;;;5041614;28;20310;-63
2024/04/06 05:36:53;;;;;;;2.30;2.20;;;14.30;99.90;;;;;;5032163;28;20260;-63
2024/04/06 05:39:20;;;;;;;2.23;2.13;;;14.40;99.90;;;;;;5031552;28;20231;-63
2024/04/06 05:41:49;;;;;;;4.37;2.20;;;14.60;99.90;;;;;;5028522;28;20273;-64
2024/04/06 05:44:16;;;;;;;4.07;2.40;;;14.80;99.90;;;;;;5032875;28;20363;-63
2024/04/06 05:46:44;;;;;;;3.00;2.30;;;14.90;99.90;;;;;;5023953;28;20750;-63
2024/04/06 05:49:10;;;;;;;4.63;2.37;;;15.00;99.90;;;;;;5025327;28;20241;-63
2024/04/06 05:51:37;;;;;;;2.47;2.30;;;15.20;99.90;;;;;;5030972;28;20221;-63
2024/04/06 05:54:04;;;;;;;3.77;2.50;;;15.30;99.90;;;;;;5033776;28;20226;-63
2024/04/06 05:56:31;;;;;;;3.73;2.30;;;15.40;99.90;;;;;;5025702;28;20197;-62
2024/04/06 05:58:59;;;;;;;4.97;2.50;;;15.50;99.90;;;;;;5027545;28;20215;-62
2024/04/06 06:01:28;;;;;;;2.10;2.00;;;15.50;99.90;;;;;;5031251;28;20579;-63
2024/04/06 06:03:54;;;;;;;4.10;2.00;;;15.50;99.90;;;;;;5029858;28;20667;-63
2024/04/06 06:06:22;;;;;;;8.10;2.20;;;15.50;99.60;;;;;;5025354;28;20225;-62
2024/04/06 06:08:48;;;;;;;2.20;2.10;;;15.50;99.90;;;;;;5034530;28;20239;-64
2024/04/06 06:11:15;;;;;;;3.60;2.30;;;15.60;96.40;;;;;;5028326;28;20313;-63
2024/04/06 06:13:42;;;;;;;2.33;2.13;;;15.60;90.90;;;;;;5020898;28;20210;-62
2024/04/06 06:16:09;;;;;;;3.63;2.10;;;15.70;92.10;;;;;;5040227;28;20220;-63
2024/04/06 06:18:37;;;;;;;3.43;2.20;;;15.80;84.60;;;;;;5046086;28;20246;-63
2024/04/06 06:21:05;;;;;;;2.23;2.03;;;16.00;62.80;;;;;;5043232;28;20313;-62
2024/04/06 06:23:32;;;;;;;3.03;2.00;;;16.10;45.40;;;;;;5027560;28;20197;-62
2024/04/06 06:26:01;;;;;;;2.17;2.07;;;16.30;1.00;;;;;;5028198;28;20210;-63
2024/04/06 06:28:27;;;;;;;13.57;2.60;;;16.50;1.00;;;;;;5028287;28;20341;-63
2024/04/06 06:30:54;;;;;;;2.93;1.87;;;16.70;1.00;;;;;;5030533;28;20224;-63
2024/04/06 06:33:21;;;;;;;3.87;2.20;;;16.90;1.00;;;;;;5028446;28;20380;-63
2024/04/06 06:35:56;;;;;;;4.23;2.10;;;17.00;1.00;;;;;;5023259;28;20223;-62
2024/04/06 06:38:22;;;;;;;4.47;2.37;;;17.00;1.00;;;;;;5021880;28;20199;-62
2024/04/06 06:40:50;;;;;;;1.70;1.60;;;17.00;1.00;;;;;;5024305;28;20217;-62
2024/04/06 06:43:17;;;;;;;1.80;1.70;;;16.90;1.00;;;;;;5028376;28;20310;-62
2024/04/06 06:45:44;;;;;;;4.03;2.17;;;17.10;1.00;;;;;;5024106;28;20251;-63
2024/04/06 06:48:11;;;;;;;3.00;1.83;;;17.20;1.00;;;;;;5025635;28;20215;-63
2024/04/06 06:50:38;;;;;;;2.63;1.90;;;17.50;1.00;;;;;;5023506;28;20235;-63
2024/04/06 06:53:06;;;;;;;1.90;1.80;;;17.80;1.00;;;;;;5025468;28;20277;-63
2024/04/06 06:55:36;;;;;;;2.67;2.00;;;18.00;1.00;;;;;;5024501;28;21713;-63
2024/04/06 06:58:02;;;;;;;3.23;2.00;;;17.90;1.00;;;;;;5025937;28;20214;-63
2024/04/06 07:00:30;;;;;;;2.57;2.00;;;18.10;99.90;;;;;;5021250;28;20246;-63
2024/04/06 07:02:56;;;;;;;1.87;1.70;;;18.20;99.90;;;;;;5024377;28;20558;-63
2024/04/06 07:05:23;;;;;;;1.80;1.70;;;18.30;99.90;;;;;;5018317;28;20201;-63
2024/04/06 07:07:54;;;;;;;1.90;1.80;;;18.40;99.90;;;;;;5024784;28;20225;-63
2024/04/06 07:10:23;;;;;;;3.47;2.07;;;18.60;99.90;;;;;;5021036;28;20236;-62
2024/04/06 07:12:50;;;;;;;3.97;1.90;;;18.60;1.00;;;;;;5023147;28;20232;-63
2024/04/06 07:15:17;;;;;;;1.80;1.70;;;18.70;1.00;;;;;;5021719;28;20706;-62
2024/04/06 07:17:44;;;;;;;3.67;2.13;;;18.70;1.00;;;;;;5023166;28;20276;-63
2024/04/06 07:20:11;;;;;;;2.47;2.10;;;18.70;1.00;;;;;;5022144;28;20202;-62
2024/04/06 07:22:39;;;;;;;3.57;1.73;;;18.50;1.00;;;;;;5021791;28;20221;-62
2024/04/06 07:25:07;;;;;;;3.07;2.10;;;18.30;1.00;;;;;;5022584;28;20217;-63
2024/04/06 07:27:34;;;;;;;2.23;2.10;;;18.00;1.00;;;;;;5001720;28;20218;-63
2024/04/06 07:30:02;;;;;;;2.43;2.00;;;17.90;99.90;;;;;;5023656;28;20306;-63
2024/04/06 07:32:28;;;;;;;4.33;1.80;;;17.80;99.90;;;;;;5024633;28;20197;-62
2024/04/06 07:34:57;;;;;;;3.50;1.80;;;17.70;99.90;;;;;;5021677;28;20352;-62
2024/04/06 07:37:24;;;;;;;1.90;1.67;;;17.70;1.00;;;;;;5021681;28;20221;-63
2024/04/06 07:39:51;;;;;;;2.77;2.00;;;17.60;99.90;;;;;;5026148;28;20216;-63
2024/04/06 07:42:20;;;;;;;2.27;1.80;;;17.60;99.90;;;;;;5022907;28;20229;-63
2024/04/06 07:44:49;;;;;;;2.70;1.80;;;17.50;99.90;;;;;;5023804;28;20189;-63
2024/04/06 07:47:16;;;;;;;5.40;1.77;;;17.50;99.90;;;;;;5040327;28;20194;-63
2024/04/06 07:49:44;;;;;;;1.70;1.70;;;17.50;99.90;;;;;;5024690;28;20236;-63
2024/04/06 07:52:10;;;;;;;2.00;1.90;;;17.50;99.90;;;;;;5022860;28;20221;-62
2024/04/06 07:54:38;;;;;;;4.00;1.90;;;17.50;1.00;;;;;;5020574;28;20216;-64
2024/04/06 07:57:05;;;;;;;2.37;1.80;;;17.50;99.90;;;;;;5038753;28;20240;-63
2024/04/06 07:59:33;;;;;;;3.10;1.60;;;17.50;41.20;;;;;;5020391;28;20297;-63
2024/04/06 08:02:01;;;;;;;2.40;1.73;;;17.60;1.00;;;;;;5021591;28;20222;-63
2024/04/06 08:04:29;;;;;;;2.33;1.80;;;17.60;1.00;;;;;;5024010;28;21719;-63
2024/04/06 08:06:55;;;;;;;3.27;1.77;;;17.70;1.00;;;;;;5022488;28;20257;-64
2024/04/06 08:09:23;;;;;;;5.13;2.03;;;17.80;1.00;;;;;;5022322;28;20245;-63
2024/04/06 08:11:49;;;;;;;1.57;1.50;;;17.90;99.90;;;;;;5023534;28;20224;-63
2024/04/06 08:14:17;;;;;;;3.90;1.77;;;18.20;31.50;;;;;;5021952;28;20637;-63
2024/04/06 08:16:43;;;;;;;2.93;1.63;;;18.60;1.00;;;;;;5021080;28;21901;-63
2024/04/06 08:19:12;;;;;;;1.50;1.50;;;19.10;99.90;;;;;;5023890;28;20703;-63
2024/04/06 08:21:40;;;;;;;2.03;1.57;;;19.40;1.00;;;;;;5018906;28;20217;-63
2024/04/06 08:24:08;;;;;;;1.87;1.73;;;19.50;99.90;;;;;;5021286;28;20347;-63
2024/04/06 08:26:34;;;;;;;1.70;1.60;;;19.50;1.00;;;;;;5024763;28;20205;-64
2024/04/06 08:29:02;;;;;;;3.90;1.40;;;19.80;99.90;;;;;;5021475;28;20213;-63
2024/04/06 08:31:29;;;;;;;2.97;1.63;;;20.20;99.90;;;;;;5024020;28;20714;-63
2024/04/06 08:33:56;;;;;;;2.53;1.60;;;20.60;1.00;;;;;;5021981;28;20219;-64
2024/04/06 08:36:23;;;;;;;4.27;1.50;;;20.70;1.00;;;;;;5022553;28;20218;-64
2024/04/06 08:38:51;;;;;;;1.23;1.20;;;20.50;1.00;;;;;;5019105;28;20200;-63
2024/04/06 08:41:18;;;;;;;2.33;1.47;;;20.20;1.00;;;;;;5027843;28;20205;-63
2024/04/06 08:43:48;;;;;;;1.47;1.47;;;20.30;1.00;;;;;;5024686;28;20241;-64
2024/04/06 08:46:15;;;;;;;1.60;1.50;;;20.30;1.00;;;;;;5026482;28;20213;-63
2024/04/06 08:48:46;;;;;;;5.40;1.67;;;20.30;99.90;;;;;;5029991;28;20270;-63
2024/04/06 08:51:16;;;;;;;1.47;1.37;;;20.30;1.00;;;;;;5028568;28;20256;-63
2024/04/06 08:53:45;;;;;;;1.40;1.30;;;20.30;99.90;;;;;;5031966;28;20343;-64
2024/04/06 08:56:15;;;;;;;1.60;1.50;;;20.20;99.90;;;;;;5045087;28;20192;-63
2024/04/06 08:58:43;;;;;;;2.43;1.20;;;20.10;89.60;;;;;;5025430;28;20225;-63
2024/04/06 09:01:10;;;;;;;1.50;1.40;;;19.90;99.90;;;;;;5030137;28;20303;-63
2024/04/06 09:03:38;;;;;;;1.53;1.30;;;19.90;99.90;;;;;;5022497;28;20249;-63
2024/04/06 09:06:14;;;;;;;1.50;1.40;;;19.80;99.90;;;;;;5023674;28;20653;-63
2024/04/06 09:08:42;;;;;;;2.17;1.43;;;19.70;1.00;;;;;;5023838;28;20473;-62
2024/04/06 09:11:12;;;;;;;1.93;1.50;;;19.70;99.90;;;;;;5021411;28;20659;-63
2024/04/06 09:13:39;;;;;;;1.93;1.50;;;19.80;99.90;;;;;;5008924;28;20731;-63
2024/04/06 09:16:07;;;;;;;1.60;1.50;;;19.90;1.00;;;;;;5025237;28;20217;-63
2024/04/06 09:18:34;;;;;;;2.60;1.50;;;20.00;31.70;;;;;;5026914;28;20755;-63
2024/04/06 09:21:01;;;;;;;1.43;1.33;;;20.40;1.00;;;;;;5025038;28;20225;-63
2024/04/06 09:23:28;;;;;;;1.30;1.10;;;20.80;1.00;;;;;;5023746;28;20238;-63
2024/04/06 09:25:58;;;;;;;1.10;1.10;;;21.00;99.90;;;;;;5024675;28;20221;-64
2024/04/06 09:28:28;;;;;;;1.50;1.40;;;21.20;1.00;;;;;;5028440;28;20992;-64
2024/04/06 09:30:57;;;;;;;1.33;1.23;;;21.40;99.90;;;;;;5026880;28;20214;-63
2024/04/06 09:33:25;;;;;;;3.20;1.33;;;21.70;1.00;;;;;;5028161;28;20227;-64
2024/04/06 09:35:52;;;;;;;1.50;1.20;;;21.80;1.00;;;;;;5022922;28;20248;-63
2024/04/06 09:38:20;;;;;;;1.27;1.20;;;22.00;1.00;;;;;;5022122;28;20690;-63
2024/04/06 09:40:48;;;;;;;1.33;1.30;;;22.00;1.00;;;;;;5028612;28;20644;-63
2024/04/06 09:43:15;;;;;;;1.67;1.27;;;22.10;99.90;;;;;;5023254;28;20226;-63
2024/04/06 09:45:43;;;;;;;1.53;1.43;;;22.30;1.00;;;;;;5026528;28;20992;-63
2024/04/06 09:48:11;;;;;;;1.40;1.30;;;22.50;99.90;;;;;;5017615;28;20241;-63
2024/04/06 09:50:38;;;;;;;1.40;1.20;;;22.40;1.00;;;;;;5026338;28;20193;-65
2024/04/06 09:53:06;;;;;;;1.53;1.40;;;22.60;1.00;;;;;;5028111;28;21987;-64
2024/04/06 09:55:36;;;;;;;2.67;1.40;;;22.90;1.00;;;;;;5013004;28;20671;-64
2024/04/06 09:58:04;;;;;;;1.47;1.37;;;23.20;99.90;;;;;;5021454;28;20221;-63
2024/04/06 10:00:32;;;;;;;1.53;1.13;;;23.00;11.20;;;;;;5023337;28;20224;-63
2024/04/06 10:03:02;;;;;;;1.20;1.20;;;22.90;1.00;;;;;;5006543;28;20236;-64
2024/04/06 10:05:38;;;;;;;2.77;1.07;;;22.90;1.00;;;;;;5023801;28;20248;-63
2024/04/06 10:08:07;;;;;;;1.53;1.33;;;22.80;1.00;;;;;;5021598;28;20266;-63
2024/04/06 10:10:33;;;;;;;1.37;1.30;;;23.10;1.00;;;;;;5020354;28;20225;-64
2024/04/06 10:13:05;;;;;;;2.20;1.27;;;23.10;1.00;;;;;;5021866;28;20587;-63
2024/04/06 10:15:32;;;;;;;1.20;1.20;;;23.20;1.00;;;;;;5033655;28;20231;-63
2024/04/06 10:18:07;;;;;;;1.40;1.30;;;23.40;99.90;;;;;;5043684;28;20272;-63
2024/04/06 10:20:34;;;;;;;2.57;1.10;;;23.60;1.00;;;;;;5045216;28;20315;-63
2024/04/06 10:23:03;;;;;;;10.47;1.30;;;23.60;1.00;;;;;;5042552;28;20320;-64
2024/04/06 10:25:34;;;;;;;3.00;1.30;;;23.80;99.90;;;;;;5059046;28;20638;-62
2024/04/06 10:28:06;;;;;;;1.70;1.10;;;23.80;99.90;;;;;;5043312;28;20265;-63
2024/04/06 10:30:34;;;;;;;1.30;1.30;;;24.10;99.90;;;;;;5045436;28;20204;-63
2024/04/06 10:33:03;;;;;;;1.27;1.20;;;24.60;99.90;;;;;;5041209;28;20312;-63
2024/04/06 10:35:29;;;;;;;1.20;1.10;;;25.50;1.00;;;;;;5041996;28;20206;-63
2024/04/06 10:37:57;;;;;;;2.00;1.13;;;25.90;99.90;;;;;;5021973;28;20338;-63
2024/04/06 10:40:27;;;;;;;1.93;0.90;;;25.60;1.00;;;;;;5023041;28;20233;-63
2024/04/06 10:42:55;;;;;;;1.60;1.50;;;25.60;1.00;;;;;;5024270;28;20765;-64
2024/04/06 10:45:21;;;;;;;2.20;1.33;;;25.90;1.00;;;;;;5019267;28;20213;-64
2024/04/06 10:47:49;;;;;;;1.33;1.00;;;26.10;1.00;;;;;;5020967;28;20281;-63
2024/04/06 10:50:17;;;;;;;2.25;1.30;;;26.70;99.90;;;;;;5019929;28;20281;-64
2024/04/06 10:52:47;;;;;;;1.30;1.20;;;26.30;99.90;;;;;;5037924;28;20220;-64
2024/04/06 10:55:15;;;;;;;2.50;1.23;;;26.40;99.90;;;;;;5019546;28;20218;-63
2024/04/06 10:57:44;;;;;;;1.33;1.33;;;26.20;99.90;;;;;;5023250;28;20226;-63
2024/04/06 11:00:12;;;;;;;1.50;1.10;;;26.50;1.00;;;;;;5025449;28;20222;-63
2024/04/06 11:02:40;;;;;;;1.10;1.10;;;25.80;1.00;;;;;;5022125;28;20194;-62
2024/04/06 11:05:08;;;;;;;1.20;1.10;;;25.70;98.10;;;;;;5008757;28;20209;-63
2024/04/06 11:07:38;;;;;;;4.43;1.40;;;25.60;1.00;;;;;;5016586;28;20226;-62
2024/04/06 11:10:09;;;;;;;1.33;1.27;;;25.40;1.00;;;;;;5025655;28;20221;-63
2024/04/06 11:12:37;;;;;;;1.10;1.00;;;25.40;94.10;;;;;;5024249;28;20313;-63
2024/04/06 11:15:07;;;;;;;1.97;1.07;;;25.20;1.00;;;;;;5026336;28;20232;-63
2024/04/06 11:17:36;;;;;;;1.93;1.13;;;25.10;69.20;;;;;;5045734;28;20220;-63
2024/04/06 11:20:05;;;;;;;1.80;1.10;;;24.70;1.00;;;;;;5043573;28;20832;-63
2024/04/06 11:22:32;;;;;;;3.33;1.10;;;24.30;99.90;;;;;;5043107;28;20257;-63
2024/04/06 11:25:00;;;;;;;1.30;1.30;;;24.10;99.90;;;;;;5034372;28;20234;-63
2024/04/06 11:27:27;;;;;;;1.40;1.20;;;24.10;99.90;;;;;;5018787;28;20221;-63
2024/04/06 11:29:54;;;;;;;1.10;1.10;;;24.20;1.00;;;;;;5019798;28;20306;-63
2024/04/06 11:32:23;;;;;;;4.40;1.27;;;24.30;99.90;;;;;;5021464;28;20239;-63
2024/04/06 11:34:53;;;;;;;1.23;1.13;;;24.10;1.00;;;;;;5017594;28;20299;-64
2024/04/06 11:37:22;;;;;;;1.90;1.00;;;23.90;1.00;;;;;;5023909;28;20310;-63
2024/04/06 11:39:50;;;;;;;4.20;1.10;;;23.90;1.00;;;;;;5019353;28;20221;-64
2024/04/06 11:42:19;;;;;;;1.83;1.00;;;23.80;1.00;;;;;;5018849;28;20224;-63
2024/04/06 11:44:48;;;;;;;1.00;1.00;;;23.70;1.00;;;;;;5022903;28;20273;-63
2024/04/06 11:47:16;;;;;;;3.20;1.30;;;23.60;1.00;;;;;;5024737;28;20285;-63
2024/04/06 11:49:42;;;;;;;2.70;2.33;;;23.70;1.00;;;;;;5023727;28;20307;-63
2024/04/06 11:52:10;;;;;;;2.53;1.20;;;23.90;1.00;;;;;;5020924;28;20215;-63
2024/04/06 11:54:36;;;;;;;3.77;1.13;;;24.00;1.00;;;;;;5017637;28;20607;-63
2024/04/06 11:57:04;;;;;;;1.47;1.37;;;24.20;21.40;;;;;;5022891;28;20362;-63
2024/04/06 11:59:33;;;;;;;2.33;1.30;;;24.50;30.70;;;;;;5022278;28;20299;-62
2024/04/06 12:02:01;;;;;;;2.73;1.20;;;24.50;1.00;;;;;;5027140;28;20676;-63
2024/04/06 12:04:27;;;;;;;1.00;1.00;;;24.70;1.00;;;;;;5026021;28;20262;-64
2024/04/06 12:06:56;;;;;;;3.27;1.30;;;24.70;1.00;;;;;;5025479;28;20271;-64
2024/04/06 12:09:23;;;;;;;2.90;1.20;;;24.70;1.00;;;;;;5037410;28;20227;-63
2024/04/06 12:11:50;;;;;;;1.80;1.20;;;24.70;1.00;;;;;;5023466;28;20218;-63
2024/04/06 12:14:17;;;;;;;1.40;1.30;;;24.80;1.00;;;;;;5021666;28;20281;-63
2024/04/06 12:16:46;;;;;;;1.37;1.30;;;25.10;1.00;;;;;;5027191;28;20233;-63
2024/04/06 12:19:12;;;;;;;1.60;1.50;;;25.40;1.00;;;;;;5020812;28;20227;-64
2024/04/06 12:21:40;;;;;;;3.43;1.37;;;25.50;1.00;;;;;;5023393;28;20749;-64
2024/04/06 12:24:07;;;;;;;1.60;1.47;;;25.80;1.00;;;;;;5020258;28;20218;-64
2024/04/06 12:26:34;;;;;;;3.63;1.60;;;26.00;99.90;;;;;;5020031;28;20209;-63
2024/04/06 12:29:01;;;;;;;1.70;1.60;;;25.70;99.90;;;;;;5022865;28;20221;-65
2024/04/06 12:31:28;;;;;;;3.17;1.60;;;25.60;99.90;;;;;;5020794;28;20221;-65
2024/04/06 12:33:56;;;;;;;1.53;1.20;;;25.70;99.90;;;;;;5020827;28;20332;-64
2024/04/06 12:36:24;;;;;;;1.50;1.50;;;25.70;99.90;;;;;;5019572;28;20225;-64
2024/04/06 12:38:50;;;;;;;8.13;1.40;;;25.60;53.80;;;;;;5019678;28;20347;-65
2024/04/06 12:41:17;;;;;;;1.30;1.20;;;25.80;99.90;;;;;;5025697;28;20263;-64
2024/04/06 12:43:44;;;;;;;1.37;1.20;;;25.80;99.90;;;;;;5021519;28;20583;-64
2024/04/06 12:46:11;;;;;;;1.27;1.20;;;25.80;99.90;;;;;;5008525;28;20213;-64
2024/04/06 12:48:38;;;;;;;4.20;1.20;;;25.60;1.00;;;;;;5044387;28;20219;-64
2024/04/06 12:51:07;;;;;;;4.03;1.30;;;25.70;1.00;;;;;;5019324;28;21197;-64